Time;durP1;ratioP1;P1;durP2;ratioP2;P2;SDS_P1;SDS_P2;PMS_P1;PMS_P2;Temp;Humidity;BMP_temperature;BMP_pressure;BME280_temperature;BME280_humidity;BME280_pressure;Samples;Min_cycle;Max_cycle;Signal;HPM_P1;HPM_P2
2022/07/13 00:01:52;;;;;;;1.87;1.67;;;;;;;18.04;54.19;101142.34;1607268;87;21098;-83
2022/07/13 00:04:18;;;;;;;3.03;1.50;;;;;;;18.04;54.13;101144.51;1596355;86;20893;-83
2022/07/13 00:06:44;;;;;;;2.25;1.55;;;;;;;18.01;54.40;101140.70;1572754;88;21113;-83
2022/07/13 00:09:13;;;;;;;1.65;1.50;;;;;;;17.99;54.40;101147.75;1610814;87;21132;-83
2022/07/13 00:11:39;;;;;;;2.00;1.43;;;;;;;17.99;54.60;101143.83;1612441;87;21070;-83
2022/07/13 00:14:05;;;;;;;2.30;1.47;;;;;;;17.98;54.59;101139.51;1603094;87;21053;-83
2022/07/13 00:16:31;;;;;;;2.47;1.70;;;;;;;17.99;54.67;101137.28;1605429;88;21914;-83
2022/07/13 00:19:00;;;;;;;1.55;1.45;;;;;;;18.00;54.77;101144.68;1581005;87;21086;-83
2022/07/13 00:21:26;;;;;;;2.13;1.53;;;;;;;17.98;55.04;101140.81;1584558;87;21706;-83
2022/07/13 00:23:54;;;;;;;1.50;1.40;;;;;;;17.97;55.07;101137.80;1596056;87;21090;-83
2022/07/13 00:26:20;;;;;;;3.27;1.70;;;;;;;17.97;55.03;101134.33;1594256;87;21165;-83
2022/07/13 00:28:49;;;;;;;2.12;1.40;;;;;;;17.96;55.18;101131.31;1611511;86;21137;-83
2022/07/13 00:31:15;;;;;;;1.87;1.43;;;;;;;17.94;55.24;101127.45;1610402;85;21675;-83
2022/07/13 00:33:41;;;;;;;2.60;1.40;;;;;;;17.95;55.46;101134.39;1568359;89;20944;-83
2022/07/13 00:36:09;;;;;;;1.98;1.72;;;;;;;17.93;55.54;101128.36;1578499;89;21089;-83
2022/07/13 00:38:36;;;;;;;1.70;1.60;;;;;;;17.93;55.51;101128.36;1614406;86;20960;-83
2022/07/13 00:41:05;;;;;;;3.00;1.77;;;;;;;17.94;55.61;101123.53;1608292;87;21133;-83
2022/07/13 00:43:31;;;;;;;3.95;1.47;;;;;;;17.93;55.70;101116.59;1609337;87;20977;-83
2022/07/13 00:45:57;;;;;;;1.70;1.57;;;;;;;17.92;55.82;101117.50;1629461;86;21146;-83
2022/07/13 00:48:24;;;;;;;1.67;1.57;;;;;;;17.91;55.83;101116.25;1608776;87;21000;-83
2022/07/13 00:50:51;;;;;;;1.67;1.57;;;;;;;17.90;55.94;101115.85;1595710;87;21040;-83
2022/07/13 00:53:19;;;;;;;2.27;1.60;;;;;;;17.88;55.99;101104.59;1580709;87;20987;-83
2022/07/13 00:55:46;;;;;;;1.50;1.40;;;;;;;17.86;56.07;101105.50;1631087;85;20981;-83
2022/07/13 00:58:13;;;;;;;1.70;1.50;;;;;;;17.85;56.21;101101.18;1596069;87;21012;-83
2022/07/13 01:00:39;;;;;;;1.82;1.55;;;;;;;17.81;56.30;101094.36;1633505;84;20962;-83
2022/07/13 01:03:06;;;;;;;;;;;;;;;17.81;56.47;101096.98;1587564;88;21001;-83
2022/07/13 01:05:32;;;;;;;2.00;1.80;;;;;;;17.79;56.91;101102.72;1578065;89;20163;-83
2022/07/13 01:07:58;;;;;;;2.40;1.70;;;;;;;17.76;56.47;101100.67;1618607;86;21012;-83
2022/07/13 01:10:25;;;;;;;1.30;1.20;;;;;;;17.70;56.81;101103.52;1605305;87;20977;-83
2022/07/13 01:12:52;;;;;;;;;;;;;;;17.70;56.81;101103.52;1629614;86;21955;-83
2022/07/13 01:15:18;;;;;;;2.27;1.50;;;;;;;17.68;57.12;101098.34;1615547;86;20160;-83
2022/07/13 01:17:46;;;;;;;3.92;1.47;;;;;;;17.68;56.82;101100.11;1631024;86;20936;-83
2022/07/13 01:20:12;;;;;;;1.77;1.47;;;;;;;17.66;56.90;101098.04;1626579;86;21466;-83
2022/07/13 01:22:45;;;;;;;1.70;1.60;;;;;;;17.64;57.08;101095.45;1606464;85;20908;-83
2022/07/13 01:25:15;;;;;;;2.12;1.82;;;;;;;17.62;57.18;101097.27;1604279;87;21036;-83
2022/07/13 01:27:42;;;;;;;1.85;1.65;;;;;;;17.61;57.17;101097.33;1612707;86;20981;-83
2022/07/13 01:30:09;;;;;;;2.10;1.82;;;;;;;17.60;57.30;101086.47;1606994;87;21044;-83
2022/07/13 01:32:51;;;;;;;2.40;1.60;;;;;;;17.59;57.40;101089.54;1578868;87;21452;-83
2022/07/13 01:35:19;;;;;;;2.22;2.00;;;;;;;17.58;57.54;101095.68;1606917;86;20914;-83
2022/07/13 01:37:45;;;;;;;2.75;1.95;;;;;;;17.59;57.63;101085.61;1596732;87;20942;-83
2022/07/13 01:40:13;;;;;;;2.25;1.85;;;;;;;17.58;57.83;101082.60;1606130;87;21040;-83
2022/07/13 01:42:43;;;;;;;2.20;1.90;;;;;;;17.57;57.84;101076.98;1597747;88;20939;-83
2022/07/13 01:45:10;;;;;;;2.20;2.00;;;;;;;17.54;57.93;101075.33;1629364;84;428555;-83
2022/07/13 01:47:42;;;;;;;2.40;2.20;;;;;;;17.52;58.14;101070.61;1631103;86;20910;-83
2022/07/13 01:50:11;;;;;;;3.40;1.85;;;;;;;17.50;58.17;101068.50;1628166;86;20987;-83
2022/07/13 01:52:37;;;;;;;2.92;1.80;;;;;;;17.52;58.22;101069.75;1609909;87;21504;-83
2022/07/13 01:55:05;;;;;;;2.02;1.92;;;;;;;17.52;58.26;101071.91;1584778;87;20985;-83
2022/07/13 01:57:32;;;;;;;2.33;1.95;;;;;;;17.52;58.34;101062.77;1602151;87;21007;-83
2022/07/13 02:00:04;;;;;;;;;;;;;;;17.53;58.40;101067.08;1586678;88;21029;-83
2022/07/13 02:02:30;;;;;;;3.22;2.15;;;;;;;17.52;58.91;101071.06;1590690;86;20189;-82
2022/07/13 02:04:57;;;;;;;2.80;1.82;;;;;;;17.49;58.53;101063.33;1611515;87;21125;-82
2022/07/13 02:07:23;;;;;;;2.10;1.90;;;;;;;17.48;58.77;101057.70;1575340;87;21067;-82
2022/07/13 02:09:50;;;;;;;5.67;2.10;;;;;;;17.47;58.77;101062.54;1578206;88;21050;-83
2022/07/13 02:12:18;;;;;;;2.35;2.05;;;;;;;17.45;58.93;101059.98;1599932;87;21478;-83
2022/07/13 02:14:46;;;;;;;3.27;2.00;;;;;;;17.45;58.86;101064.36;1614424;87;21142;-83
2022/07/13 02:17:12;;;;;;;2.35;2.10;;;;;;;17.45;59.06;101063.05;1621104;85;21087;-83
2022/07/13 02:19:39;;;;;;;2.08;1.87;;;;;;;17.45;59.13;101062.59;1615676;87;21124;-83
2022/07/13 02:22:08;;;;;;;2.12;2.02;;;;;;;17.43;59.61;101054.41;1618260;87;21132;-83
2022/07/13 02:24:35;;;;;;;2.75;2.40;;;;;;;17.44;59.34;101060.03;1574868;88;21094;-83
2022/07/13 02:27:01;;;;;;;2.30;1.98;;;;;;;17.43;59.46;101053.10;1585135;87;21145;-83
2022/07/13 02:29:27;;;;;;;1.98;1.80;;;;;;;17.42;59.52;101054.02;1595606;88;21575;-83
2022/07/13 02:31:53;;;;;;;2.27;1.80;;;;;;;17.40;59.62;101059.30;1592991;87;21004;-83
2022/07/13 02:34:21;;;;;;;3.80;2.27;;;;;;;17.42;59.64;101061.85;1607921;87;21107;-83
2022/07/13 02:36:48;;;;;;;2.47;2.22;;;;;;;17.43;59.82;101059.19;1588905;88;21668;-84
2022/07/13 02:39:14;;;;;;;2.87;2.12;;;;;;;17.42;59.80;101055.31;1574749;89;21086;-83
2022/07/13 02:41:40;;;;;;;1.97;1.73;;;;;;;17.43;59.85;101060.49;1602519;87;21088;-83
2022/07/13 02:44:06;;;;;;;3.87;1.90;;;;;;;17.46;59.87;101051.23;1607277;88;20946;-83
2022/07/13 02:46:32;;;;;;;2.57;1.97;;;;;;;17.47;59.94;101056.00;1629413;86;21082;-83
2022/07/13 02:48:58;;;;;;;2.23;2.03;;;;;;;17.46;60.12;101049.06;1626745;85;21121;-83
2022/07/13 02:51:25;;;;;;;5.62;1.82;;;;;;;17.45;60.13;101057.37;1597439;88;21214;-83
2022/07/13 02:53:51;;;;;;;;;;;;;;;17.46;60.16;101050.37;1582787;87;21069;-83
2022/07/13 02:56:17;;;;;;;2.73;2.40;;;;;;;17.45;60.88;101052.14;1612877;87;20266;-83
2022/07/13 02:58:43;;;;;;;3.20;1.80;;;;;;;17.44;60.39;101048.27;1603774;87;20948;-83
2022/07/13 03:01:09;;;;;;;2.95;1.77;;;;;;;17.43;60.70;101040.03;1612685;86;21150;-83
2022/07/13 03:03:35;;;;;;;1.87;1.57;;;;;;;17.43;60.47;101043.95;1611526;85;21075;-83
2022/07/13 03:06:02;;;;;;;2.27;2.10;;;;;;;17.43;60.57;101040.88;1594244;88;21119;-84
2022/07/13 03:08:28;;;;;;;2.27;1.82;;;;;;;17.45;60.64;101040.37;1567200;88;21125;-84
2022/07/13 03:10:55;;;;;;;5.60;1.72;;;;;;;17.47;60.71;101046.39;1609496;87;21621;-84
2022/07/13 03:13:21;;;;;;;1.97;1.77;;;;;;;17.49;60.83;101044.58;1610225;87;21061;-83
2022/07/13 03:15:48;;;;;;;2.33;1.72;;;;;;;17.52;60.85;101044.91;1607288;87;28240;-83
2022/07/13 03:18:14;;;;;;;2.10;1.90;;;;;;;17.52;60.87;101045.77;1621438;86;21139;-83
2022/07/13 03:20:41;;;;;;;2.33;1.60;;;;;;;17.56;60.95;101046.96;1607600;87;25320;-83
2022/07/13 03:23:07;;;;;;;1.50;1.40;;;;;;;17.58;61.05;101049.06;1600678;87;21084;-83
2022/07/13 03:25:33;;;;;;;1.80;1.50;;;;;;;17.59;61.10;101052.08;1602310;87;21060;-83
2022/07/13 03:27:59;;;;;;;4.87;1.50;;;;;;;17.62;61.10;101041.50;1610726;86;21570;-83
2022/07/13 03:30:25;;;;;;;1.75;1.65;;;;;;;17.63;61.12;101040.13;1616885;86;21107;-83
2022/07/13 03:32:51;;;;;;;2.53;1.43;;;;;;;17.67;61.19;101036.52;1603469;87;21615;-83
2022/07/13 03:35:18;;;;;;;2.30;1.95;;;;;;;17.67;61.25;101041.75;1617803;86;21128;-83
2022/07/13 03:37:44;;;;;;;3.45;1.70;;;;;;;17.71;61.31;101047.69;1628589;86;21108;-83
2022/07/13 03:40:11;;;;;;;2.45;1.72;;;;;;;17.74;61.29;101051.03;1606752;86;21092;-83
2022/07/13 03:42:38;;;;;;;1.62;1.42;;;;;;;17.75;61.32;101060.59;1596723;87;21065;-83
2022/07/13 03:45:06;;;;;;;1.60;1.47;;;;;;;17.77;61.45;101054.84;1574493;89;21777;-83
2022/07/13 03:47:32;;;;;;;1.98;1.40;;;;;;;17.81;61.46;101046.42;1581208;88;21541;-83
2022/07/13 03:49:58;;;;;;;4.50;1.60;;;;;;;17.83;61.46;101051.98;1583038;88;21172;-83
2022/07/13 03:52:24;;;;;;;1.30;1.20;;;;;;;17.86;61.47;101049.25;1590581;87;21109;-83
2022/07/13 03:54:50;;;;;;;1.37;1.27;;;;;;;17.90;61.49;101053.91;1587284;88;21499;-83
2022/07/13 03:57:17;;;;;;;2.27;1.60;;;;;;;17.94;61.62;101046.80;1610558;86;21504;-83
2022/07/13 03:59:43;;;;;;;2.67;1.40;;;;;;;17.85;61.54;101037.08;1629912;87;21527;-83
2022/07/13 04:02:09;;;;;;;2.50;1.60;;;;;;;17.99;61.65;101050.94;1629814;86;21048;-83
2022/07/13 04:04:35;;;;;;;1.30;1.20;;;;;;;18.03;61.68;101049.90;1620133;85;21052;-83
2022/07/13 04:07:01;;;;;;;1.97;1.20;;;;;;;18.08;61.70;101051.88;1604173;86;21028;-83
2022/07/13 04:09:27;;;;;;;4.67;1.60;;;;;;;18.13;61.71;101054.31;1609478;85;21064;-83
2022/07/13 04:11:53;;;;;;;3.07;1.30;;;;;;;18.18;61.75;101057.59;1583494;87;21119;-83
2022/07/13 04:14:20;;;;;;;1.45;1.35;;;;;;;18.28;61.80;101053.66;1586046;87;21509;-83
2022/07/13 04:16:46;;;;;;;1.33;1.00;;;;;;;18.49;61.92;101053.23;1606166;87;21696;-83
2022/07/13 04:19:12;;;;;;;2.43;1.53;;;;;;;18.73;61.82;101053.52;1616478;85;21654;-83
2022/07/13 04:21:40;;;;;;;1.40;1.30;;;;;;;18.84;61.70;101056.53;1582901;88;21130;-83
2022/07/13 04:24:07;;;;;;;2.10;1.10;;;;;;;18.89;61.71;101051.09;1589418;87;20957;-84
2022/07/13 04:26:33;;;;;;;1.20;1.10;;;;;;;18.93;61.68;101050.50;1585825;88;21059;-84
2022/07/13 04:28:59;;;;;;;2.40;1.22;;;;;;;18.95;61.69;101051.28;1617801;87;21250;-83
2022/07/13 04:31:25;;;;;;;1.43;1.33;;;;;;;18.93;61.70;101056.59;1606541;86;21762;-83
2022/07/13 04:33:52;;;;;;;1.43;1.17;;;;;;;18.93;61.72;101059.21;1601823;87;20996;-83
2022/07/13 04:36:18;;;;;;;1.27;1.17;;;;;;;18.93;61.72;101051.81;1588824;87;22342;-83
2022/07/13 04:38:45;;;;;;;2.08;1.40;;;;;;;18.90;61.72;101050.63;1570086;89;21667;-83
2022/07/13 04:41:11;;;;;;;1.40;1.23;;;;;;;18.87;61.79;101051.62;1611375;88;21687;-83
2022/07/13 04:43:37;;;;;;;1.40;1.30;;;;;;;18.86;61.85;101053.84;1569612;88;21607;-83
2022/07/13 04:46:04;;;;;;;1.32;1.20;;;;;;;18.83;61.80;101049.59;1597711;87;22375;-83
2022/07/13 04:48:31;;;;;;;5.10;1.12;;;;;;;18.83;61.87;101051.36;1580170;86;22158;-83
2022/07/13 04:50:57;;;;;;;1.43;1.20;;;;;;;18.82;61.89;101047.88;1587128;86;21997;-83
2022/07/13 04:53:24;;;;;;;1.00;1.00;;;;;;;18.81;61.95;101061.05;1577635;88;21526;-83
2022/07/13 04:55:50;;;;;;;3.58;1.32;;;;;;;18.80;61.94;101061.51;1618241;87;21131;-83
2022/07/13 04:58:16;;;;;;;1.20;1.10;;;;;;;18.80;61.90;101057.58;1610572;86;21576;-83
2022/07/13 05:00:42;;;;;;;2.03;1.40;;;;;;;18.80;61.93;101061.51;1579549;89;21714;-83
2022/07/13 05:03:08;;;;;;;1.43;1.33;;;;;;;18.78;61.94;101063.34;1617289;87;21463;-84
2022/07/13 05:05:34;;;;;;;1.30;1.20;;;;;;;18.79;61.97;101058.95;1579934;86;22349;-84
2022/07/13 05:08:01;;;;;;;1.17;1.07;;;;;;;18.82;61.94;101061.44;1572762;90;21574;-84
2022/07/13 05:10:28;;;;;;;2.05;1.30;;;;;;;18.82;62.05;101062.30;1577105;87;21078;-84
2022/07/13 05:12:55;;;;;;;3.40;1.20;;;;;;;19.09;62.29;101069.42;1614203;86;21552;-83
2022/07/13 05:15:22;;;;;;;1.80;1.22;;;;;;;19.56;62.27;101057.27;1588338;87;21116;-83
2022/07/13 05:17:56;;;;;;;3.80;1.40;;;;;;;20.09;62.18;101052.54;1608040;86;21524;-84
2022/07/13 05:20:22;;;;;;;1.43;1.17;;;;;;;20.65;62.00;101060.71;1626698;85;21126;-84
2022/07/13 05:22:48;;;;;;;3.47;1.27;;;;;;;21.20;61.86;101065.26;1606221;86;21096;-83
2022/07/13 05:25:14;;;;;;;2.08;1.10;;;;;;;21.68;61.65;101064.41;1592906;86;21569;-83
2022/07/13 05:27:40;;;;;;;1.20;1.10;;;;;;;22.12;61.53;101055.34;1602926;87;21093;-84
2022/07/13 05:30:08;;;;;;;2.95;1.25;;;;;;;22.61;61.42;101058.21;1591037;88;21622;-84
2022/07/13 05:32:33;;;;;;;1.10;1.00;;;;;;;23.04;61.17;101057.81;1584834;87;21029;-84
2022/07/13 05:35:00;;;;;;;1.20;1.10;;;;;;;23.50;61.03;101054.95;1599315;87;21600;-84
2022/07/13 05:37:26;;;;;;;1.40;1.30;;;;;;;23.88;60.83;101054.72;1589068;88;21562;-85
2022/07/13 05:39:54;;;;;;;2.35;0.95;;;;;;;24.68;60.14;101066.99;1602222;86;21082;-85
2022/07/13 05:42:20;;;;;;;1.37;1.10;;;;;;;24.68;60.14;101066.99;1624369;87;21076;-85
2022/07/13 05:44:46;;;;;;;0.90;0.80;;;;;;;25.01;60.12;101070.94;1623866;86;21627;-85
2022/07/13 05:47:15;;;;;;;3.40;1.17;;;;;;;25.22;59.80;101077.39;1622911;86;22403;-84
2022/07/13 05:49:41;;;;;;;0.80;0.80;;;;;;;25.47;59.80;101068.58;1615615;87;21060;-84
2022/07/13 05:52:07;;;;;;;1.10;1.00;;;;;;;25.63;59.42;101065.65;1624119;86;21683;-81
2022/07/13 05:54:35;;;;;;;;;;;;;;;25.92;59.17;101078.16;1627588;86;21017;-83
2022/07/13 05:57:02;;;;;;;2.05;1.10;;;;;;;26.15;57.16;101071.14;1626601;86;20208;-83
2022/07/13 05:59:29;;;;;;;1.10;1.00;;;;;;;26.33;58.61;101072.45;1613180;86;21093;-83
2022/07/13 06:01:55;;;;;;;1.10;0.95;;;;;;;26.58;58.33;101062.15;1600488;87;21130;-83
2022/07/13 06:04:21;;;;;;;0.95;0.80;;;;;;;26.75;58.03;101061.71;1615595;85;21591;-83
2022/07/13 06:06:48;;;;;;;;;;;;;;;26.97;57.62;101060.94;1631500;85;21540;-83
2022/07/13 06:09:14;;;;;;;1.30;1.20;;;;;;;27.23;56.34;101068.17;1605377;87;20812;-83
2022/07/13 06:11:40;;;;;;;1.23;0.90;;;;;;;27.38;57.24;101062.98;1621295;85;20977;-83
2022/07/13 06:14:06;;;;;;;2.22;1.27;;;;;;;27.54;56.96;101072.75;1619707;86;21804;-83
2022/07/13 06:16:33;;;;;;;1.07;0.95;;;;;;;27.84;56.62;101068.59;1593760;87;20956;-83
2022/07/13 06:18:59;;;;;;;;;;;;;;;27.99;56.08;101064.20;1590313;88;21056;-84
2022/07/13 06:21:25;;;;;;;1.47;0.90;;;;;;;28.20;55.03;101060.23;1578723;87;20247;-85
2022/07/13 06:23:51;;;;;;;0.88;0.80;;;;;;;28.38;55.28;101063.22;1590771;87;21165;-83
2022/07/13 06:26:17;;;;;;;1.22;0.93;;;;;;;28.56;55.08;101065.66;1596815;85;21093;-83
2022/07/13 06:28:43;;;;;;;1.60;0.80;;;;;;;28.67;54.48;101064.23;1591668;88;21787;-83
2022/07/13 06:31:11;;;;;;;0.98;0.90;;;;;;;28.37;53.89;101063.34;1606569;86;21052;-84
2022/07/13 06:33:37;;;;;;;1.12;0.90;;;;;;;28.02;53.79;101069.76;1575637;87;21072;-83
2022/07/13 06:36:04;;;;;;;1.10;1.00;;;;;;;27.71;53.65;101076.72;1600950;86;21476;-83
2022/07/13 06:38:29;;;;;;;0.88;0.88;;;;;;;27.52;53.32;101063.21;1627725;84;21153;-83
2022/07/13 06:40:55;;;;;;;1.00;0.90;;;;;;;27.33;53.17;101067.81;1605940;85;21008;-83
2022/07/13 06:43:22;;;;;;;0.80;0.80;;;;;;;27.22;52.69;101069.13;1641798;84;20997;-83
2022/07/13 06:45:48;;;;;;;2.45;1.12;;;;;;;27.09;52.47;101070.58;1609350;86;21092;-83
2022/07/13 06:48:14;;;;;;;0.95;0.95;;;;;;;26.84;52.01;101076.93;1587929;88;21388;-80
2022/07/13 06:50:40;;;;;;;1.72;1.10;;;;;;;26.67;51.94;101069.41;1611855;86;21067;-84
2022/07/13 06:53:07;;;;;;;1.57;0.90;;;;;;;26.58;51.76;101073.61;1620806;86;21335;-82
2022/07/13 06:55:34;;;;;;;1.22;1.07;;;;;;;26.38;51.51;101055.73;1636021;85;21615;-83
2022/07/13 06:58:00;;;;;;;1.02;1.00;;;;;;;26.37;51.30;101068.14;1621757;85;21107;-84
2022/07/13 07:00:27;;;;;;;2.80;0.82;;;;;;;26.19;50.92;101077.42;1635259;85;21166;-85
2022/07/13 07:02:53;;;;;;;0.82;0.70;;;;;;;26.00;50.80;101081.91;1639501;85;21196;-85
2022/07/13 07:05:26;;;;;;;0.80;0.80;;;;;;;25.88;50.46;101087.28;1621723;86;21025;-83
2022/07/13 07:07:52;;;;;;;1.17;1.05;;;;;;;25.76;50.53;101085.52;1603373;87;21693;-83
2022/07/13 07:10:18;;;;;;;2.20;1.30;;;;;;;25.72;50.21;101073.81;1580892;87;20993;-85
2022/07/13 07:12:50;;;;;;;1.72;1.00;;;;;;;25.69;50.06;101079.81;1604673;85;20973;-83
2022/07/13 07:15:16;;;;;;;1.42;0.93;;;;;;;25.75;49.90;101077.20;1596494;88;21089;-83
2022/07/13 07:17:47;;;;;;;1.15;0.95;;;;;;;25.78;49.68;101080.95;1588331;87;20998;-83
2022/07/13 07:20:18;;;;;;;1.42;1.32;;;;;;;25.79;49.54;101087.47;1614242;86;21148;-84
2022/07/13 07:22:46;;;;;;;1.00;0.93;;;;;;;26.17;49.49;101092.59;1614029;86;20941;-84
2022/07/13 07:25:13;;;;;;;1.40;1.17;;;;;;;26.83;49.08;101088.98;1604578;86;21085;-83
2022/07/13 07:27:40;;;;;;;;;;;;;;;27.12;48.90;101082.77;1604699;86;21111;-84
2022/07/13 07:30:08;;;;;;;1.85;1.10;;;;;;;27.02;47.24;101082.66;1609631;87;20191;-85
2022/07/13 07:32:34;;;;;;;1.07;1.00;;;;;;;26.90;48.31;101080.44;1600834;87;21092;-80
2022/07/13 07:35:00;;;;;;;2.10;1.02;;;;;;;26.78;48.24;101081.86;1587745;87;21087;-73
2022/07/13 07:37:26;;;;;;;1.27;1.05;;;;;;;26.70;48.26;101082.44;1617997;86;21043;-75
2022/07/13 07:39:52;;;;;;;1.10;0.85;;;;;;;26.69;48.28;101079.42;1620254;85;21678;-72
2022/07/13 07:42:19;;;;;;;8.57;1.53;;;;;;;26.88;48.30;101070.42;1617819;84;332333;-81
2022/07/13 07:44:46;;;;;;;2.65;1.00;;;;;;;27.26;48.41;101067.93;1601528;87;21183;-80
2022/07/13 07:47:15;;;;;;;1.32;0.82;;;;;;;27.61;48.14;101065.98;1616446;86;21107;-82
2022/07/13 07:49:43;;;;;;;1.15;1.07;;;;;;;27.86;47.91;101069.31;1624174;86;21076;-82
2022/07/13 07:52:10;;;;;;;2.77;1.32;;;;;;;27.97;47.66;101066.15;1603005;87;21552;-81
2022/07/13 07:54:37;;;;;;;2.72;1.10;;;;;;;28.06;47.64;101060.56;1622998;86;21159;-80
2022/07/13 07:57:05;;;;;;;1.40;1.07;;;;;;;28.19;47.51;101063.86;1621367;85;21143;-80
2022/07/13 07:59:32;;;;;;;1.37;1.27;;;;;;;28.27;47.24;101065.44;1617103;85;21481;-79
2022/07/13 08:01:59;;;;;;;1.67;1.30;;;;;;;28.35;46.98;101062.14;1615748;84;21112;-79
2022/07/13 08:04:26;;;;;;;1.65;1.00;;;;;;;28.42;47.10;101066.47;1624030;84;21352;-79
2022/07/13 08:06:54;;;;;;;1.00;1.00;;;;;;;28.75;46.82;101069.40;1630585;85;21091;-80
2022/07/13 08:09:21;;;;;;;1.47;1.37;;;;;;;29.12;46.54;101073.75;1608083;86;21152;-80
2022/07/13 08:11:48;;;;;;;1.32;1.22;;;;;;;29.39;46.32;101063.84;1590024;86;21083;-79
2022/07/13 08:14:16;;;;;;;1.22;1.12;;;;;;;29.78;45.99;101072.30;1615149;86;21079;-79
2022/07/13 08:16:45;;;;;;;1.72;1.00;;;;;;;29.92;45.81;101075.07;1597916;87;21726;-79
2022/07/13 08:19:13;;;;;;;1.35;0.90;;;;;;;29.93;45.58;101066.09;1615097;85;20973;-77
2022/07/13 08:21:40;;;;;;;1.12;1.00;;;;;;;29.91;45.29;101068.89;1594095;87;21040;-78
2022/07/13 08:24:07;;;;;;;1.90;0.80;;;;;;;29.89;45.17;101060.67;1594366;85;21066;-79
2022/07/13 08:26:34;;;;;;;1.82;1.45;;;;;;;29.85;45.10;101052.60;1624385;85;21737;-79
2022/07/13 08:29:02;;;;;;;1.10;1.00;;;;;;;29.81;44.72;101055.19;1628579;85;20993;-78
2022/07/13 08:31:29;;;;;;;1.47;1.00;;;;;;;29.61;44.53;101046.34;1607793;86;20972;-78
2022/07/13 08:39:28;;;;;;;1.10;1.00;;;;;;;29.74;43.96;101052.23;1654706;86;21025;-78
2022/07/13 08:41:59;;;;;;;1.30;1.10;;;;;;;29.69;43.82;101046.95;1627320;85;21506;-78
2022/07/13 08:44:26;;;;;;;3.55;0.93;;;;;;;29.56;43.60;101041.91;1612016;86;20980;-78
2022/07/13 08:46:53;;;;;;;1.00;1.00;;;;;;;29.59;43.58;101037.64;1604709;87;21389;-78
2022/07/13 08:49:21;;;;;;;1.22;1.12;;;;;;;29.56;43.45;101036.58;1598708;87;20998;-78
2022/07/13 08:51:50;;;;;;;5.05;1.15;;;;;;;29.40;43.19;101030.40;1588443;87;21019;-78
2022/07/13 08:54:17;;;;;;;1.00;0.90;;;;;;;29.20;43.12;101031.31;1606994;86;21224;-78
2022/07/13 08:56:45;;;;;;;1.27;1.17;;;;;;;29.16;43.15;101037.88;1602433;87;21072;-78
2022/07/13 08:59:13;;;;;;;1.98;1.20;;;;;;;29.12;42.98;101038.64;1588726;87;21041;-77
2022/07/13 09:01:40;;;;;;;1.20;1.10;;;;;;;29.05;42.91;101045.99;1625979;86;21041;-77
2022/07/13 09:04:11;;;;;;;1.65;1.50;;;;;;;28.93;42.84;101051.40;1596145;86;21089;-77
2022/07/13 09:06:47;;;;;;;2.95;1.10;;;;;;;28.71;42.56;101048.86;1578125;87;21498;-77
2022/07/13 09:09:38;;;;;;;1.50;1.40;;;;;;;28.49;42.65;101039.22;1591093;87;21120;-77
2022/07/13 09:12:21;;;;;;;1.10;1.10;;;;;;;28.28;42.60;101045.00;1612464;87;21060;-77
2022/07/13 09:14:54;;;;;;;2.67;1.47;;;;;;;28.14;42.71;101042.61;1628257;85;21522;-76
2022/07/13 09:17:44;;;;;;;1.27;1.17;;;;;;;27.93;42.66;101043.44;1619837;86;21808;-76
2022/07/13 09:20:17;;;;;;;1.17;1.00;;;;;;;27.80;42.67;101046.73;1611878;87;21504;-76
2022/07/13 09:22:55;;;;;;;4.12;1.30;;;;;;;27.64;42.66;101048.46;1642664;85;20973;-76
2022/07/13 09:25:32;;;;;;;1.37;1.05;;;;;;;27.55;42.68;101042.56;1631633;86;21137;-76
2022/07/13 09:28:06;;;;;;;4.85;1.20;;;;;;;27.52;42.74;101039.30;1642835;85;21048;-76
2022/07/13 09:30:36;;;;;;;1.75;1.22;;;;;;;27.50;42.72;101038.58;1636778;86;20969;-76
2022/07/13 09:33:04;;;;;;;1.50;1.17;;;;;;;27.43;42.72;101034.24;1636105;86;21209;-76
2022/07/13 09:35:47;;;;;;;1.07;1.00;;;;;;;27.41;42.66;101027.36;1610846;87;20934;-76
2022/07/13 09:38:32;;;;;;;1.40;1.22;;;;;;;27.40;42.71;101031.83;1604685;87;20952;-76
2022/07/13 09:41:23;;;;;;;1.65;1.20;;;;;;;27.41;42.58;101042.81;1620233;86;20905;-77
2022/07/13 09:47:03;;;;;;;1.52;1.05;;;;;;;27.28;42.56;101039.44;1598723;86;20989;-77
2022/07/13 09:49:41;;;;;;;1.70;0.95;;;;;;;27.28;42.61;101040.28;1568039;89;20991;-77
2022/07/13 09:52:18;;;;;;;1.65;1.00;;;;;;;27.31;42.61;101040.53;1627712;86;20937;-77
2022/07/13 09:54:52;;;;;;;2.33;1.10;;;;;;;27.27;42.55;101039.92;1599980;87;21012;-77
2022/07/13 09:59:44;;;;;;;1.42;1.15;;;;;;;27.22;42.65;101041.25;1866779;76;23125;-76
2022/07/13 10:02:12;;;;;;;3.67;1.20;;;;;;;27.13;42.63;101039.32;1824284;77;20909;-76
2022/07/13 10:04:38;;;;;;;;;;;;;;;27.07;42.63;101037.14;1825455;78;20908;-76
2022/07/13 10:07:05;;;;;;;1.15;1.05;;;;;;;27.03;42.74;101039.23;1786989;79;20152;-76
2022/07/13 10:09:38;;;;;;;3.05;1.15;;;;;;;27.02;42.73;101044.17;1814943;78;20924;-76
2022/07/13 10:12:12;;;;;;;0.93;0.90;;;;;;;27.04;42.77;101043.06;1817446;78;21012;-76
2022/07/13 10:14:46;;;;;;;2.20;1.27;;;;;;;27.06;42.71;101042.09;1823531;77;20947;-76
2022/07/13 10:17:15;;;;;;;3.40;2.00;;;;;;;27.09;42.73;101037.88;1829485;77;21021;-76
2022/07/13 10:19:46;;;;;;;3.30;1.40;;;;;;;27.08;42.75;101036.18;1821317;77;21001;-76
2022/07/13 10:22:19;;;;;;;1.60;1.20;;;;;;;27.07;42.78;101037.14;1821103;77;21315;-78
2022/07/13 10:24:55;;;;;;;1.72;1.50;;;;;;;27.12;42.82;101042.45;1823261;78;21003;-77
2022/07/13 10:27:32;;;;;;;1.57;1.15;;;;;;;27.19;42.84;101032.20;1821759;77;21019;-77
2022/07/13 10:30:06;;;;;;;4.53;1.15;;;;;;;27.24;42.83;101030.88;1820996;77;21053;-77
2022/07/13 10:32:40;;;;;;;1.20;1.10;;;;;;;27.23;42.76;101027.01;1817341;77;20994;-77
2022/07/13 10:35:13;;;;;;;5.20;1.40;;;;;;;27.14;42.77;101029.06;1807771;78;21047;-76
2022/07/13 10:38:02;;;;;;;1.00;0.90;;;;;;;27.00;42.64;101028.37;1795510;78;21982;-76
2022/07/13 10:40:36;;;;;;;1.20;0.90;;;;;;;26.90;42.75;101024.70;1803499;79;21031;-76
2022/07/13 10:43:07;;;;;;;1.47;1.37;;;;;;;26.88;42.80;101025.79;1770678;78;21083;-76
2022/07/13 10:45:38;;;;;;;2.12;1.20;;;;;;;26.84;42.74;101025.66;1769285;81;21042;-76
2022/07/13 10:48:34;;;;;;;2.10;1.37;;;;;;;26.79;42.79;101015.89;1739853;81;20992;-78
2022/07/13 10:51:02;;;;;;;6.65;1.27;;;;;;;26.79;42.85;101007.92;1765470;80;21084;-76
2022/07/13 10:53:46;;;;;;;3.05;1.52;;;;;;;26.80;42.92;101018.42;1785694;78;21024;-77
2022/07/13 10:56:20;;;;;;;2.60;1.05;;;;;;;26.84;42.96;101017.70;1784822;78;21064;-77
2022/07/13 10:58:51;;;;;;;2.55;1.17;;;;;;;26.88;42.93;101010.71;1765862;80;21003;-76
2022/07/13 11:01:43;;;;;;;1.47;1.00;;;;;;;26.96;42.96;100999.53;1767248;80;21027;-76
2022/07/13 11:04:13;;;;;;;2.25;1.10;;;;;;;27.01;42.97;100994.70;1669043;84;21148;-77
2022/07/13 11:06:42;;;;;;;1.47;1.25;;;;;;;27.07;43.04;100988.03;1662501;85;21088;-77
2022/07/13 11:09:20;;;;;;;1.02;1.00;;;;;;;27.12;43.00;100993.34;1693923;84;21334;-77
2022/07/13 11:11:50;;;;;;;3.98;1.20;;;;;;;27.15;42.97;100997.08;1715835;82;21073;-77
2022/07/13 11:14:45;;;;;;;1.45;1.00;;;;;;;27.13;42.94;100995.52;1701841;83;20877;-77
2022/07/13 11:17:18;;;;;;;1.07;0.95;;;;;;;27.13;42.98;100994.19;1714474;83;20913;-77
2022/07/13 11:20:09;;;;;;;6.92;1.15;;;;;;;27.14;43.02;100989.23;1729812;82;20957;-77
2022/07/13 11:25:35;;;;;;;3.62;1.10;;;;;;;27.20;43.03;100990.92;1685607;83;20929;-77
2022/07/13 11:28:44;;;;;;;1.40;1.30;;;;;;;27.21;42.99;100985.13;1726034;82;20917;-77
2022/07/13 11:31:13;;;;;;;4.53;1.50;;;;;;;27.25;43.10;100986.58;1708819;81;20873;-77
2022/07/13 11:33:51;;;;;;;1.10;1.00;;;;;;;27.32;43.09;100984.63;1707224;82;21028;-76
2022/07/13 11:36:24;;;;;;;1.60;1.15;;;;;;;27.40;43.13;100981.84;1808676;77;21103;-76
2022/07/13 11:38:51;;;;;;;1.10;1.00;;;;;;;27.47;43.03;100979.06;1823019;78;20969;-76
2022/07/13 11:41:20;;;;;;;1.37;1.27;;;;;;;27.50;42.94;100983.64;1819536;77;21013;-76
2022/07/13 11:43:48;;;;;;;1.02;0.75;;;;;;;27.55;42.88;100987.25;1806599;77;21012;-76
2022/07/13 11:46:24;;;;;;;1.50;1.30;;;;;;;27.61;42.86;100974.80;1808298;77;20937;-76
2022/07/13 11:49:03;;;;;;;1.63;1.20;;;;;;;27.67;42.75;100980.45;1790922;78;21020;-77